sensor_id;sensor_type;location;lat;lon;timestamp;pressure;altitude;pressure_sealevel;temperature;humidity
38022;BME280;23832;43.216;27.946;2023-05-25T00:01:14;100672.00;;;20.18;100.00
38022;BME280;23832;43.216;27.946;2023-05-25T00:03:16;100668.25;;;20.19;100.00
38022;BME280;23832;43.216;27.946;2023-05-25T00:05:19;100672.09;;;20.23;100.00
38022;BME280;23832;43.216;27.946;2023-05-25T00:07:23;100668.97;;;20.15;100.00
38022;BME280;23832;43.216;27.946;2023-05-25T00:09:24;100667.72;;;19.70;100.00
38022;BME280;23832;43.216;27.946;2023-05-25T00:11:26;100681.78;;;20.01;100.00
38022;BME280;23832;43.216;27.946;2023-05-25T00:13:28;100687.81;;;20.08;100.00
38022;BME280;23832;43.216;27.946;2023-05-25T00:15:30;100679.31;;;20.11;100.00
38022;BME280;23832;43.216;27.946;2023-05-25T00:17:31;100668.16;;;20.14;100.00
38022;BME280;23832;43.216;27.946;2023-05-25T00:19:36;100667.81;;;20.22;100.00
38022;BME280;23832;43.216;27.946;2023-05-25T00:21:41;100668.38;;;20.24;100.00
38022;BME280;23832;43.216;27.946;2023-05-25T00:23:45;100669.53;;;20.28;100.00
38022;BME280;23832;43.216;27.946;2023-05-25T00:25:46;100669.78;;;20.15;100.00
38022;BME280;23832;43.216;27.946;2023-05-25T00:27:48;100666.63;;;20.18;100.00
38022;BME280;23832;43.216;27.946;2023-05-25T00:29:50;100670.84;;;20.14;100.00
38022;BME280;23832;43.216;27.946;2023-05-25T00:31:52;100665.50;;;20.14;100.00
38022;BME280;23832;43.216;27.946;2023-05-25T00:33:54;100669.22;;;20.13;100.00
38022;BME280;23832;43.216;27.946;2023-05-25T00:35:55;100666.75;;;20.11;100.00
38022;BME280;23832;43.216;27.946;2023-05-25T00:37:57;100671.78;;;20.08;100.00
38022;BME280;23832;43.216;27.946;2023-05-25T00:40:01;100669.22;;;20.13;100.00
38022;BME280;23832;43.216;27.946;2023-05-25T00:42:03;100671.66;;;20.15;100.00
38022;BME280;23832;43.216;27.946;2023-05-25T00:44:06;100669.94;;;19.97;100.00
38022;BME280;23832;43.216;27.946;2023-05-25T00:46:08;100676.66;;;20.11;100.00
38022;BME280;23832;43.216;27.946;2023-05-25T00:48:10;100662.56;;;20.16;100.00
38022;BME280;23832;43.216;27.946;2023-05-25T00:50:13;100665.50;;;20.14;100.00
38022;BME280;23832;43.216;27.946;2023-05-25T00:52:16;100674.09;;;20.16;100.00
38022;BME280;23832;43.216;27.946;2023-05-25T00:54:18;100662.91;;;20.19;100.00
38022;BME280;23832;43.216;27.946;2023-05-25T00:56:23;100674.34;;;20.15;100.00
38022;BME280;23832;43.216;27.946;2023-05-25T00:58:29;100670.16;;;20.07;100.00
38022;BME280;23832;43.216;27.946;2023-05-25T01:00:32;100662.94;;;20.07;100.00
38022;BME280;23832;43.216;27.946;2023-05-25T01:02:35;100669.22;;;20.13;100.00
38022;BME280;23832;43.216;27.946;2023-05-25T01:04:39;100671.78;;;20.08;100.00
38022;BME280;23832;43.216;27.946;2023-05-25T01:06:45;100667.81;;;19.99;100.00
38022;BME280;23832;43.216;27.946;2023-05-25T01:08:49;100664.44;;;20.03;100.00
38022;BME280;23832;43.216;27.946;2023-05-25T01:10:52;100661.88;;;20.08;100.00
38022;BME280;23832;43.216;27.946;2023-05-25T01:12:56;100658.16;;;19.98;100.00
38022;BME280;23832;43.216;27.946;2023-05-25T01:15:00;100661.06;;;20.08;100.00
38022;BME280;23832;43.216;27.946;2023-05-25T01:17:03;100668.53;;;20.06;100.00
38022;BME280;23832;43.216;27.946;2023-05-25T01:19:05;100664.69;;;20.13;100.00
38022;BME280;23832;43.216;27.946;2023-05-25T01:21:11;100665.59;;;20.19;100.00
38022;BME280;23832;43.216;27.946;2023-05-25T01:23:17;100668.75;;;20.16;100.00
38022;BME280;23832;43.216;27.946;2023-05-25T01:25:21;100662.91;;;20.19;100.00
38022;BME280;23832;43.216;27.946;2023-05-25T01:27:26;100663.16;;;20.06;100.00
38022;BME280;23832;43.216;27.946;2023-05-25T01:29:32;100663.63;;;20.03;100.00
38022;BME280;23832;43.216;27.946;2023-05-25T01:31:35;100655.59;;;20.03;100.00
38022;BME280;23832;43.216;27.946;2023-05-25T01:33:38;100660.63;;;19.88;100.00
38022;BME280;23832;43.216;27.946;2023-05-25T01:35:40;100660.72;;;19.93;100.00
38022;BME280;23832;43.216;27.946;2023-05-25T01:37:45;100655.50;;;19.98;100.00
38022;BME280;23832;43.216;27.946;2023-05-25T01:39:47;100658.19;;;19.63;100.00
38022;BME280;23832;43.216;27.946;2023-05-25T01:41:49;100657.94;;;19.64;100.00
38022;BME280;23832;43.216;27.946;2023-05-25T01:43:51;100652.94;;;19.68;100.00
38022;BME280;23832;43.216;27.946;2023-05-25T01:45:55;100649.88;;;19.52;100.00
38022;BME280;23832;43.216;27.946;2023-05-25T01:48:00;100653.16;;;19.66;100.00
38022;BME280;23832;43.216;27.946;2023-05-25T01:50:06;100652.13;;;19.67;100.00
38022;BME280;23832;43.216;27.946;2023-05-25T01:52:14;100652.94;;;19.56;100.00
38022;BME280;23832;43.216;27.946;2023-05-25T01:54:20;100652.66;;;19.46;100.00
38022;BME280;23832;43.216;27.946;2023-05-25T01:56:22;100647.59;;;19.56;100.00
38022;BME280;23832;43.216;27.946;2023-05-25T01:58:27;100652.00;;;19.74;100.00
38022;BME280;23832;43.216;27.946;2023-05-25T02:00:32;100652.34;;;19.66;100.00
38022;BME280;23832;43.216;27.946;2023-05-25T02:02:34;100654.34;;;19.70;100.00
38022;BME280;23832;43.216;27.946;2023-05-25T02:04:37;100650.38;;;19.61;100.00
38022;BME280;23832;43.216;27.946;2023-05-25T02:06:39;100663.34;;;19.46;100.00
38022;BME280;23832;43.216;27.946;2023-05-25T02:08:40;100663.69;;;19.49;100.00
38022;BME280;23832;43.216;27.946;2023-05-25T02:10:44;100657.84;;;19.59;100.00
38022;BME280;23832;43.216;27.946;2023-05-25T02:12:46;100656.06;;;19.76;100.00
38022;BME280;23832;43.216;27.946;2023-05-25T02:14:47;100654.44;;;19.64;100.00
38022;BME280;23832;43.216;27.946;2023-05-25T02:16:50;100659.78;;;19.52;100.00
38022;BME280;23832;43.216;27.946;2023-05-25T02:18:52;100660.63;;;19.64;100.00
38022;BME280;23832;43.216;27.946;2023-05-25T02:20:54;100658.41;;;19.61;100.00
38022;BME280;23832;43.216;27.946;2023-05-25T02:22:56;100669.47;;;19.23;100.00
38022;BME280;23832;43.216;27.946;2023-05-25T02:24:58;100582.25;;;18.87;100.00
38022;BME280;23832;43.216;27.946;2023-05-25T02:27:01;100660.13;;;19.67;100.00
38022;BME280;23832;43.216;27.946;2023-05-25T02:29:03;100662.78;;;19.55;100.00
38022;BME280;23832;43.216;27.946;2023-05-25T02:31:05;100671.41;;;19.58;100.00
38022;BME280;23832;43.216;27.946;2023-05-25T02:33:07;100677.28;;;19.48;100.00
38022;BME280;23832;43.216;27.946;2023-05-25T02:35:08;100678.00;;;19.55;100.00
38022;BME280;23832;43.216;27.946;2023-05-25T02:37:10;100680.56;;;19.50;100.00
38022;BME280;23832;43.216;27.946;2023-05-25T02:39:13;100682.53;;;19.43;100.00
38022;BME280;23832;43.216;27.946;2023-05-25T02:41:15;100682.88;;;19.35;100.00
38022;BME280;23832;43.216;27.946;2023-05-25T02:43:18;100686.13;;;19.37;100.00
38022;BME280;23832;43.216;27.946;2023-05-25T02:45:20;100688.94;;;19.42;100.00
38022;BME280;23832;43.216;27.946;2023-05-25T02:47:22;100690.91;;;19.46;100.00
38022;BME280;23832;43.216;27.946;2023-05-25T02:49:23;100685.63;;;19.70;100.00
38022;BME280;23832;43.216;27.946;2023-05-25T02:51:25;100696.47;;;19.45;100.00
38022;BME280;23832;43.216;27.946;2023-05-25T02:53:27;100687.69;;;19.56;100.00
38022;BME280;23832;43.216;27.946;2023-05-25T02:55:29;100703.44;;;19.34;100.00
38022;BME280;23832;43.216;27.946;2023-05-25T02:57:30;100703.00;;;19.49;100.00
38022;BME280;23832;43.216;27.946;2023-05-25T02:59:34;100700.97;;;19.63;100.00
38022;BME280;23832;43.216;27.946;2023-05-25T03:01:35;100697.47;;;19.62;100.00
38022;BME280;23832;43.216;27.946;2023-05-25T03:03:39;100711.16;;;19.54;100.00
38022;BME280;23832;43.216;27.946;2023-05-25T03:05:41;100710.41;;;19.35;100.00
38022;BME280;23832;43.216;27.946;2023-05-25T03:07:43;100706.44;;;19.26;100.00
38022;BME280;23832;43.216;27.946;2023-05-25T03:09:46;100709.84;;;19.45;100.00
38022;BME280;23832;43.216;27.946;2023-05-25T03:11:48;100707.47;;;19.67;100.00
38022;BME280;23832;43.216;27.946;2023-05-25T03:13:50;100704.91;;;19.60;100.00
38022;BME280;23832;43.216;27.946;2023-05-25T03:15:54;100712.00;;;19.66;100.00
38022;BME280;23832;43.216;27.946;2023-05-25T03:17:56;100707.84;;;19.82;100.00
38022;BME280;23832;43.216;27.946;2023-05-25T03:20:00;100704.25;;;19.88;100.00
38022;BME280;23832;43.216;27.946;2023-05-25T03:22:03;100710.66;;;19.87;100.00
38022;BME280;23832;43.216;27.946;2023-05-25T03:24:05;100710.84;;;19.85;100.00
38022;BME280;23832;43.216;27.946;2023-05-25T03:26:08;100711.56;;;20.04;100.00
38022;BME280;23832;43.216;27.946;2023-05-25T03:28:10;100713.06;;;20.12;100.00
38022;BME280;23832;43.216;27.946;2023-05-25T03:30:12;100712.50;;;20.10;100.00
38022;BME280;23832;43.216;27.946;2023-05-25T03:32:15;100717.38;;;19.90;100.00
38022;BME280;23832;43.216;27.946;2023-05-25T03:34:17;100714.47;;;19.79;100.00
38022;BME280;23832;43.216;27.946;2023-05-25T03:36:19;100723.31;;;20.03;100.00
38022;BME280;23832;43.216;27.946;2023-05-25T03:38:21;100711.19;;;20.12;100.00
38022;BME280;23832;43.216;27.946;2023-05-25T03:40:23;100714.47;;;20.26;100.00
38022;BME280;23832;43.216;27.946;2023-05-25T03:42:25;100708.53;;;20.24;100.00
38022;BME280;23832;43.216;27.946;2023-05-25T03:44:26;100709.78;;;20.22;100.00
38022;BME280;23832;43.216;27.946;2023-05-25T03:46:28;100716.22;;;20.32;100.00
38022;BME280;23832;43.216;27.946;2023-05-25T03:48:31;100719.34;;;20.41;100.00
38022;BME280;23832;43.216;27.946;2023-05-25T03:50:33;100721.22;;;20.52;100.00
38022;BME280;23832;43.216;27.946;2023-05-25T03:52:35;100722.78;;;20.65;100.00
38022;BME280;23832;43.216;27.946;2023-05-25T03:54:37;100722.22;;;20.63;100.00
38022;BME280;23832;43.216;27.946;2023-05-25T03:56:39;100724.22;;;20.67;100.00
38022;BME280;23832;43.216;27.946;2023-05-25T03:58:41;100719.28;;;20.76;100.00
38022;BME280;23832;43.216;27.946;2023-05-25T04:00:42;100724.25;;;20.84;100.00
38022;BME280;23832;43.216;27.946;2023-05-25T04:02:45;100728.66;;;20.90;100.00
38022;BME280;23832;43.216;27.946;2023-05-25T04:04:48;100728.84;;;21.01;100.00
38022;BME280;23832;43.216;27.946;2023-05-25T04:06:51;100729.72;;;21.18;100.00
38022;BME280;23832;43.216;27.946;2023-05-25T04:08:52;100728.91;;;21.17;100.00
38022;BME280;23832;43.216;27.946;2023-05-25T04:10:54;100735.56;;;21.15;100.00
38022;BME280;23832;43.216;27.946;2023-05-25T04:12:56;100727.53;;;21.15;100.00
38022;BME280;23832;43.216;27.946;2023-05-25T04:14:59;100732.78;;;21.10;100.00
38022;BME280;23832;43.216;27.946;2023-05-25T04:17:00;100726.06;;;21.24;100.00
38022;BME280;23832;43.216;27.946;2023-05-25T04:19:02;100732.22;;;21.36;100.00
38022;BME280;23832;43.216;27.946;2023-05-25T04:21:05;100726.31;;;21.51;100.00
38022;BME280;23832;43.216;27.946;2023-05-25T04:23:07;100728.66;;;21.64;100.00
38022;BME280;23832;43.216;27.946;2023-05-25T04:25:09;100731.09;;;21.82;100.00
38022;BME280;23832;43.216;27.946;2023-05-25T04:27:11;100733.56;;;21.84;100.00
38022;BME280;23832;43.216;27.946;2023-05-25T04:29:13;100729.47;;;21.98;100.00
38022;BME280;23832;43.216;27.946;2023-05-25T04:31:15;100735.47;;;22.05;100.00
38022;BME280;23832;43.216;27.946;2023-05-25T04:33:17;100730.78;;;22.13;100.00
38022;BME280;23832;43.216;27.946;2023-05-25T04:35:19;100777.97;;;22.08;100.00
38022;BME280;23832;43.216;27.946;2023-05-25T04:37:23;100738.44;;;22.21;100.00
38022;BME280;23832;43.216;27.946;2023-05-25T04:39:26;100734.94;;;22.42;100.00
38022;BME280;23832;43.216;27.946;2023-05-25T04:41:28;100739.38;;;22.53;100.00
38022;BME280;23832;43.216;27.946;2023-05-25T04:43:30;100741.09;;;22.59;100.00
38022;BME280;23832;43.216;27.946;2023-05-25T04:45:32;100747.81;;;22.62;100.00
38022;BME280;23832;43.216;27.946;2023-05-25T04:47:34;100750.59;;;22.67;100.00
38022;BME280;23832;43.216;27.946;2023-05-25T04:49:36;100753.16;;;23.01;100.00
38022;BME280;23832;43.216;27.946;2023-05-25T04:51:39;100742.34;;;23.22;100.00
38022;BME280;23832;43.216;27.946;2023-05-25T04:53:42;100746.75;;;23.34;100.00
38022;BME280;23832;43.216;27.946;2023-05-25T04:55:44;100749.81;;;23.42;100.00
38022;BME280;23832;43.216;27.946;2023-05-25T04:57:46;100748.47;;;23.45;100.00
38022;BME280;23832;43.216;27.946;2023-05-25T04:59:48;100749.59;;;23.49;100.00
38022;BME280;23832;43.216;27.946;2023-05-25T05:01:50;100755.28;;;23.52;100.00
38022;BME280;23832;43.216;27.946;2023-05-25T05:03:52;100788.44;;;23.58;100.00
38022;BME280;23832;43.216;27.946;2023-05-25T05:05:54;100762.09;;;23.60;100.00
38022;BME280;23832;43.216;27.946;2023-05-25T05:07:56;100756.34;;;23.78;100.00
38022;BME280;23832;43.216;27.946;2023-05-25T05:10:00;100755.38;;;23.95;100.00
38022;BME280;23832;43.216;27.946;2023-05-25T05:12:02;100757.63;;;24.08;100.00
38022;BME280;23832;43.216;27.946;2023-05-25T05:14:04;100752.56;;;24.17;100.00
38022;BME280;23832;43.216;27.946;2023-05-25T05:16:06;100752.88;;;24.25;97.22
38022;BME280;23832;43.216;27.946;2023-05-25T05:18:07;100764.59;;;24.41;95.83
38022;BME280;23832;43.216;27.946;2023-05-25T05:20:09;100758.63;;;24.34;97.47
38022;BME280;23832;43.216;27.946;2023-05-25T05:22:11;100757.53;;;24.35;97.15
38022;BME280;23832;43.216;27.946;2023-05-25T05:24:15;100753.28;;;24.44;95.94
38022;BME280;23832;43.216;27.946;2023-05-25T05:26:18;100756.06;;;24.54;95.42
38022;BME280;23832;43.216;27.946;2023-05-25T05:28:20;100765.56;;;24.72;92.39
38022;BME280;23832;43.216;27.946;2023-05-25T05:30:26;100764.91;;;25.23;88.46
38022;BME280;23832;43.216;27.946;2023-05-25T05:32:28;100766.84;;;25.42;85.82
38022;BME280;23832;43.216;27.946;2023-05-25T05:34:30;100767.97;;;25.87;82.61
38022;BME280;23832;43.216;27.946;2023-05-25T05:36:32;100765.25;;;26.02;80.82
38022;BME280;23832;43.216;27.946;2023-05-25T05:38:34;100768.47;;;26.25;79.29
38022;BME280;23832;43.216;27.946;2023-05-25T05:40:35;100792.69;;;26.66;75.52
38022;BME280;23832;43.216;27.946;2023-05-25T05:42:39;100774.78;;;26.80;73.77
38022;BME280;23832;43.216;27.946;2023-05-25T05:44:41;100771.44;;;27.08;70.90
38022;BME280;23832;43.216;27.946;2023-05-25T05:46:43;100773.28;;;27.18;68.69
38022;BME280;23832;43.216;27.946;2023-05-25T05:48:45;100776.31;;;27.06;68.67
38022;BME280;23832;43.216;27.946;2023-05-25T05:50:46;100775.59;;;27.35;67.69
38022;BME280;23832;43.216;27.946;2023-05-25T05:52:48;100777.75;;;27.77;65.13
38022;BME280;23832;43.216;27.946;2023-05-25T05:54:50;100778.31;;;27.74;63.08
38022;BME280;23832;43.216;27.946;2023-05-25T05:56:52;100781.69;;;27.90;62.50
38022;BME280;23832;43.216;27.946;2023-05-25T05:58:56;100779.88;;;28.09;60.81
38022;BME280;23832;43.216;27.946;2023-05-25T06:00:57;100787.69;;;27.87;63.01
38022;BME280;23832;43.216;27.946;2023-05-25T06:03:00;100784.41;;;27.90;64.14
38022;BME280;23832;43.216;27.946;2023-05-25T06:05:02;100779.44;;;28.26;64.69
38022;BME280;23832;43.216;27.946;2023-05-25T06:07:04;100783.22;;;28.54;63.14
38022;BME280;23832;43.216;27.946;2023-05-25T06:09:06;100776.25;;;28.48;62.41
38022;BME280;23832;43.216;27.946;2023-05-25T06:11:07;100776.19;;;28.77;60.44
38022;BME280;23832;43.216;27.946;2023-05-25T06:13:09;100772.00;;;28.84;60.04
38022;BME280;23832;43.216;27.946;2023-05-25T06:15:12;100780.22;;;29.03;58.41
38022;BME280;23832;43.216;27.946;2023-05-25T06:17:14;100786.44;;;29.23;57.69
38022;BME280;23832;43.216;27.946;2023-05-25T06:19:16;100783.44;;;28.81;58.08
38022;BME280;23832;43.216;27.946;2023-05-25T06:21:18;100784.00;;;28.60;58.29
38022;BME280;23832;43.216;27.946;2023-05-25T06:23:20;100791.13;;;29.36;54.91
38022;BME280;23832;43.216;27.946;2023-05-25T06:25:21;100792.06;;;29.64;54.13
38022;BME280;23832;43.216;27.946;2023-05-25T06:27:23;100790.78;;;28.57;53.33
38022;BME280;23832;43.216;27.946;2023-05-25T06:29:25;100790.66;;;28.91;53.71
38022;BME280;23832;43.216;27.946;2023-05-25T06:31:28;100790.22;;;28.36;54.51
38022;BME280;23832;43.216;27.946;2023-05-25T06:33:30;100785.63;;;28.03;56.02
38022;BME280;23832;43.216;27.946;2023-05-25T06:35:32;100792.16;;;28.54;54.43
38022;BME280;23832;43.216;27.946;2023-05-25T06:37:33;100790.69;;;29.29;52.30
38022;BME280;23832;43.216;27.946;2023-05-25T06:39:37;100798.06;;;28.38;53.08
38022;BME280;23832;43.216;27.946;2023-05-25T06:41:41;100797.81;;;28.05;53.15
38022;BME280;23832;43.216;27.946;2023-05-25T06:43:42;100798.41;;;27.63;54.67
38022;BME280;23832;43.216;27.946;2023-05-25T06:45:44;100795.03;;;27.42;55.11
38022;BME280;23832;43.216;27.946;2023-05-25T06:47:48;100796.50;;;27.63;54.37
38022;BME280;23832;43.216;27.946;2023-05-25T06:49:50;100808.38;;;26.58;58.05
38022;BME280;23832;43.216;27.946;2023-05-25T06:51:52;100810.00;;;26.59;69.36
38022;BME280;23832;43.216;27.946;2023-05-25T06:53:53;100819.28;;;26.02;77.00
38022;BME280;23832;43.216;27.946;2023-05-25T06:55:56;100807.66;;;26.43;78.77
38022;BME280;23832;43.216;27.946;2023-05-25T06:57:57;100818.78;;;26.96;74.74
38022;BME280;23832;43.216;27.946;2023-05-25T06:59:59;100816.56;;;26.28;81.65
38022;BME280;23832;43.216;27.946;2023-05-25T07:02:01;100808.19;;;26.09;84.27
38022;BME280;23832;43.216;27.946;2023-05-25T07:04:04;100812.53;;;25.80;89.00
38022;BME280;23832;43.216;27.946;2023-05-25T07:06:06;100815.78;;;26.07;86.43
38022;BME280;23832;43.216;27.946;2023-05-25T07:08:10;100811.97;;;26.13;83.64
38022;BME280;23832;43.216;27.946;2023-05-25T07:10:11;100808.75;;;27.11;75.05
38022;BME280;23832;43.216;27.946;2023-05-25T07:12:13;100810.47;;;26.82;76.45
38022;BME280;23832;43.216;27.946;2023-05-25T07:14:15;100803.91;;;27.53;70.40
38022;BME280;23832;43.216;27.946;2023-05-25T07:16:17;100799.66;;;26.82;75.70
38022;BME280;23832;43.216;27.946;2023-05-25T07:18:19;100808.66;;;27.27;72.72
38022;BME280;23832;43.216;27.946;2023-05-25T07:20:22;100810.78;;;28.08;68.37
38022;BME280;23832;43.216;27.946;2023-05-25T07:22:24;100799.56;;;28.97;62.73
38022;BME280;23832;43.216;27.946;2023-05-25T07:24:26;100798.19;;;29.56;59.05
38022;BME280;23832;43.216;27.946;2023-05-25T07:26:29;100798.03;;;29.28;58.77
38022;BME280;23832;43.216;27.946;2023-05-25T07:28:34;100800.72;;;28.91;60.51
38022;BME280;23832;43.216;27.946;2023-05-25T07:30:35;100794.16;;;28.49;61.66
38022;BME280;23832;43.216;27.946;2023-05-25T07:32:37;100802.06;;;29.12;58.94
38022;BME280;23832;43.216;27.946;2023-05-25T07:34:40;100791.78;;;29.09;56.72
38022;BME280;23832;43.216;27.946;2023-05-25T07:36:43;100802.88;;;27.83;59.97
38022;BME280;23832;43.216;27.946;2023-05-25T07:38:45;100805.84;;;28.15;63.09
38022;BME280;23832;43.216;27.946;2023-05-25T07:40:48;100802.84;;;28.17;63.14
38022;BME280;23832;43.216;27.946;2023-05-25T07:42:51;100808.09;;;28.37;61.34
38022;BME280;23832;43.216;27.946;2023-05-25T07:44:53;100800.06;;;27.98;64.65
38022;BME280;23832;43.216;27.946;2023-05-25T07:46:55;100806.00;;;27.61;65.85
38022;BME280;23832;43.216;27.946;2023-05-25T07:48:57;100795.94;;;27.71;64.70
38022;BME280;23832;43.216;27.946;2023-05-25T07:50:58;100803.50;;;28.04;61.33
38022;BME280;23832;43.216;27.946;2023-05-25T07:53:02;100799.84;;;27.89;60.60
38022;BME280;23832;43.216;27.946;2023-05-25T07:55:04;100803.25;;;28.05;61.51
38022;BME280;23832;43.216;27.946;2023-05-25T07:57:06;100805.88;;;29.11;58.52
38022;BME280;23832;43.216;27.946;2023-05-25T07:59:08;100806.75;;;29.63;56.44
38022;BME280;23832;43.216;27.946;2023-05-25T08:01:10;100792.22;;;30.19;52.84
38022;BME280;23832;43.216;27.946;2023-05-25T08:03:12;100802.88;;;30.02;54.16
38022;BME280;23832;43.216;27.946;2023-05-25T08:05:14;100803.66;;;30.62;51.92
38022;BME280;23832;43.216;27.946;2023-05-25T08:07:17;100803.19;;;30.74;50.91
38022;BME280;23832;43.216;27.946;2023-05-25T08:09:20;100799.59;;;30.46;52.23
38022;BME280;23832;43.216;27.946;2023-05-25T08:11:22;100798.78;;;31.28;49.07
38022;BME280;23832;43.216;27.946;2023-05-25T08:13:25;100799.81;;;30.22;50.73
38022;BME280;23832;43.216;27.946;2023-05-25T08:15:27;100797.69;;;30.46;49.72
38022;BME280;23832;43.216;27.946;2023-05-25T08:17:29;100799.22;;;30.80;50.23
38022;BME280;23832;43.216;27.946;2023-05-25T08:19:31;100801.75;;;31.62;48.61
38022;BME280;23832;43.216;27.946;2023-05-25T08:21:32;100801.06;;;31.57;48.14
38022;BME280;23832;43.216;27.946;2023-05-25T08:23:36;100807.09;;;31.68;46.52
38022;BME280;23832;43.216;27.946;2023-05-25T08:25:42;100799.38;;;32.14;45.46
38022;BME280;23832;43.216;27.946;2023-05-25T08:27:44;100809.91;;;31.62;46.21
38022;BME280;23832;43.216;27.946;2023-05-25T08:29:46;100811.59;;;31.72;45.77
38022;BME280;23832;43.216;27.946;2023-05-25T08:31:47;100809.22;;;33.38;42.40
38022;BME280;23832;43.216;27.946;2023-05-25T08:33:49;100815.13;;;32.17;43.57
38022;BME280;23832;43.216;27.946;2023-05-25T08:35:51;100813.78;;;32.86;41.95
38022;BME280;23832;43.216;27.946;2023-05-25T08:37:53;100816.25;;;33.74;41.10
38022;BME280;23832;43.216;27.946;2023-05-25T08:39:55;100814.69;;;34.28;40.23
38022;BME280;23832;43.216;27.946;2023-05-25T08:42:01;100817.13;;;34.21;40.49
38022;BME280;23832;43.216;27.946;2023-05-25T08:44:03;100817.22;;;34.80;39.12
38022;BME280;23832;43.216;27.946;2023-05-25T08:46:07;100817.91;;;34.39;39.49
38022;BME280;23832;43.216;27.946;2023-05-25T08:48:09;100818.19;;;34.37;39.77
38022;BME280;23832;43.216;27.946;2023-05-25T08:50:12;100819.28;;;35.34;37.41
38022;BME280;23832;43.216;27.946;2023-05-25T08:52:14;100807.19;;;34.17;39.11
38022;BME280;23832;43.216;27.946;2023-05-25T08:54:22;100808.84;;;35.48;36.72
38022;BME280;23832;43.216;27.946;2023-05-25T08:56:25;100799.69;;;35.44;36.40
38022;BME280;23832;43.216;27.946;2023-05-25T08:58:31;100791.72;;;35.09;36.25
38022;BME280;23832;43.216;27.946;2023-05-25T09:00:33;100793.69;;;34.50;36.08
38022;BME280;23832;43.216;27.946;2023-05-25T09:02:38;100784.88;;;34.35;36.48
38022;BME280;23832;43.216;27.946;2023-05-25T09:04:42;100783.13;;;34.31;36.74
38022;BME280;23832;43.216;27.946;2023-05-25T09:06:45;100789.47;;;35.32;35.75
38022;BME280;23832;43.216;27.946;2023-05-25T09:08:47;100789.13;;;34.62;35.80
38022;BME280;23832;43.216;27.946;2023-05-25T09:10:49;100792.00;;;33.72;37.36
38022;BME280;23832;43.216;27.946;2023-05-25T09:12:52;100786.06;;;33.53;37.75
38022;BME280;23832;43.216;27.946;2023-05-25T09:14:55;100782.31;;;32.00;39.75
38022;BME280;23832;43.216;27.946;2023-05-25T09:16:57;100792.13;;;33.15;37.79
38022;BME280;23832;43.216;27.946;2023-05-25T09:19:00;100790.25;;;33.50;38.46
38022;BME280;23832;43.216;27.946;2023-05-25T09:21:01;100755.03;;;33.40;37.48
38022;BME280;23832;43.216;27.946;2023-05-25T09:23:04;100793.22;;;34.01;38.10
38022;BME280;23832;43.216;27.946;2023-05-25T09:25:06;100787.94;;;33.78;38.84
38022;BME280;23832;43.216;27.946;2023-05-25T09:27:09;100791.19;;;33.28;41.54
38022;BME280;23832;43.216;27.946;2023-05-25T09:29:12;100793.63;;;33.56;42.11
38022;BME280;23832;43.216;27.946;2023-05-25T09:31:15;100733.03;;;33.54;41.55
38022;BME280;23832;43.216;27.946;2023-05-25T09:33:17;100802.44;;;33.18;43.60
38022;BME280;23832;43.216;27.946;2023-05-25T09:35:19;100802.56;;;30.77;49.81
38022;BME280;23832;43.216;27.946;2023-05-25T09:37:22;100799.53;;;30.92;51.18
38022;BME280;23832;43.216;27.946;2023-05-25T09:39:24;100793.25;;;31.05;52.02
38022;BME280;23832;43.216;27.946;2023-05-25T09:41:26;100794.22;;;32.44;49.45
38022;BME280;23832;43.216;27.946;2023-05-25T09:43:29;100782.91;;;32.76;48.38
38022;BME280;23832;43.216;27.946;2023-05-25T09:45:32;100785.06;;;33.14;46.80
38022;BME280;23832;43.216;27.946;2023-05-25T09:47:36;100780.44;;;31.42;48.70
38022;BME280;23832;43.216;27.946;2023-05-25T09:49:38;100783.44;;;30.68;48.74
38022;BME280;23832;43.216;27.946;2023-05-25T09:51:41;100790.13;;;31.93;46.66
38022;BME280;23832;43.216;27.946;2023-05-25T09:53:42;100784.16;;;33.45;44.30
38022;BME280;23832;43.216;27.946;2023-05-25T09:55:46;100784.72;;;34.32;42.74
38022;BME280;23832;43.216;27.946;2023-05-25T09:57:51;100776.22;;;34.92;41.72
38022;BME280;23832;43.216;27.946;2023-05-25T09:59:53;100773.56;;;34.54;39.80
38022;BME280;23832;43.216;27.946;2023-05-25T10:01:55;100774.25;;;35.55;37.08
38022;BME280;23832;43.216;27.946;2023-05-25T10:03:59;100770.81;;;35.46;37.65
38022;BME280;23832;43.216;27.946;2023-05-25T10:06:00;100771.78;;;35.75;36.07
38022;BME280;23832;43.216;27.946;2023-05-25T10:08:03;100767.34;;;34.66;35.92
38022;BME280;23832;43.216;27.946;2023-05-25T10:10:06;100805.50;;;35.21;35.26
38022;BME280;23832;43.216;27.946;2023-05-25T10:12:08;100770.44;;;34.85;35.29
38022;BME280;23832;43.216;27.946;2023-05-25T10:14:11;100768.34;;;34.23;35.67
38022;BME280;23832;43.216;27.946;2023-05-25T10:16:15;100771.38;;;33.92;36.06
38022;BME280;23832;43.216;27.946;2023-05-25T10:18:17;100782.22;;;34.18;36.29
38022;BME280;23832;43.216;27.946;2023-05-25T10:20:24;100774.91;;;34.39;35.73
38022;BME280;23832;43.216;27.946;2023-05-25T10:22:29;100781.59;;;34.51;35.19
38022;BME280;23832;43.216;27.946;2023-05-25T10:24:33;100783.47;;;34.97;34.78
38022;BME280;23832;43.216;27.946;2023-05-25T10:26:39;100772.84;;;34.28;34.80
38022;BME280;23832;43.216;27.946;2023-05-25T10:28:41;100783.63;;;33.60;35.92